sensor_id;sensor_type;location;lat;lon;timestamp;P1;durP1;ratioP1;P2;durP2;ratioP2
22939;SDS011;11636;52.086;5.090;2023-04-15T00:01:15;5.85;;;2.70;;
22939;SDS011;11636;52.086;5.090;2023-04-15T00:04:05;4.43;;;2.58;;
22939;SDS011;11636;52.086;5.090;2023-04-15T00:06:59;6.13;;;2.97;;
22939;SDS011;11636;52.086;5.090;2023-04-15T00:09:55;7.72;;;3.05;;
22939;SDS011;11636;52.086;5.090;2023-04-15T00:12:43;5.93;;;3.13;;
22939;SDS011;11636;52.086;5.090;2023-04-15T00:15:37;5.82;;;2.97;;
22939;SDS011;11636;52.086;5.090;2023-04-15T00:18:24;6.07;;;3.55;;
22939;SDS011;11636;52.086;5.090;2023-04-15T00:21:18;6.60;;;3.70;;
22939;SDS011;11636;52.086;5.090;2023-04-15T00:24:05;6.78;;;3.83;;
22939;SDS011;11636;52.086;5.090;2023-04-15T00:26:59;6.72;;;3.25;;
22939;SDS011;11636;52.086;5.090;2023-04-15T00:29:53;6.07;;;3.47;;
22939;SDS011;11636;52.086;5.090;2023-04-15T00:32:40;5.63;;;3.17;;
22939;SDS011;11636;52.086;5.090;2023-04-15T00:35:34;5.55;;;3.10;;
22939;SDS011;11636;52.086;5.090;2023-04-15T00:38:30;5.78;;;3.83;;
22939;SDS011;11636;52.086;5.090;2023-04-15T00:41:24;5.97;;;3.42;;
22939;SDS011;11636;52.086;5.090;2023-04-15T00:44:11;5.60;;;3.45;;
22939;SDS011;11636;52.086;5.090;2023-04-15T00:47:05;5.63;;;3.33;;
22939;SDS011;11636;52.086;5.090;2023-04-15T00:49:59;7.18;;;4.05;;
22939;SDS011;11636;52.086;5.090;2023-04-15T00:52:53;4.80;;;3.00;;
22939;SDS011;11636;52.086;5.090;2023-04-15T00:55:47;5.28;;;3.22;;
22939;SDS011;11636;52.086;5.090;2023-04-15T00:58:35;5.60;;;3.65;;
22939;SDS011;11636;52.086;5.090;2023-04-15T01:01:29;6.65;;;3.83;;
22939;SDS011;11636;52.086;5.090;2023-04-15T01:04:23;6.63;;;3.60;;
22939;SDS011;11636;52.086;5.090;2023-04-15T01:07:11;5.07;;;3.17;;
22939;SDS011;11636;52.086;5.090;2023-04-15T01:10:05;4.43;;;3.17;;
22939;SDS011;11636;52.086;5.090;2023-04-15T01:12:59;5.60;;;3.55;;
22939;SDS011;11636;52.086;5.090;2023-04-15T01:15:53;5.43;;;3.15;;
22939;SDS011;11636;52.086;5.090;2023-04-15T01:18:43;7.43;;;3.80;;
22939;SDS011;11636;52.086;5.090;2023-04-15T01:21:37;6.28;;;3.25;;
22939;SDS011;11636;52.086;5.090;2023-04-15T01:24:25;6.22;;;3.30;;
22939;SDS011;11636;52.086;5.090;2023-04-15T01:27:20;5.20;;;3.40;;
22939;SDS011;11636;52.086;5.090;2023-04-15T01:30:14;5.35;;;3.15;;
22939;SDS011;11636;52.086;5.090;2023-04-15T01:33:01;5.57;;;3.80;;
22939;SDS011;11636;52.086;5.090;2023-04-15T01:35:55;7.57;;;3.80;;
22939;SDS011;11636;52.086;5.090;2023-04-15T01:38:49;6.38;;;3.58;;
22939;SDS011;11636;52.086;5.090;2023-04-15T01:41:44;6.47;;;3.53;;
22939;SDS011;11636;52.086;5.090;2023-04-15T01:44:31;5.93;;;3.60;;
22939;SDS011;11636;52.086;5.090;2023-04-15T01:47:24;5.95;;;3.53;;
22939;SDS011;11636;52.086;5.090;2023-04-15T01:50:11;5.45;;;3.70;;
22939;SDS011;11636;52.086;5.090;2023-04-15T01:53:05;5.68;;;3.72;;
22939;SDS011;11636;52.086;5.090;2023-04-15T01:55:52;6.30;;;3.88;;
22939;SDS011;11636;52.086;5.090;2023-04-15T01:58:46;6.57;;;3.45;;
22939;SDS011;11636;52.086;5.090;2023-04-15T02:01:33;7.10;;;4.03;;
22939;SDS011;11636;52.086;5.090;2023-04-15T02:04:27;6.95;;;4.28;;
22939;SDS011;11636;52.086;5.090;2023-04-15T02:07:21;7.22;;;3.85;;
22939;SDS011;11636;52.086;5.090;2023-04-15T02:10:09;6.15;;;3.90;;
22939;SDS011;11636;52.086;5.090;2023-04-15T02:13:05;5.95;;;3.78;;
22939;SDS011;11636;52.086;5.090;2023-04-15T02:15:59;6.18;;;3.53;;
22939;SDS011;11636;52.086;5.090;2023-04-15T02:18:53;4.90;;;3.50;;
22939;SDS011;11636;52.086;5.090;2023-04-15T02:21:47;6.00;;;3.80;;
22939;SDS011;11636;52.086;5.090;2023-04-15T02:24:34;7.78;;;4.28;;
22939;SDS011;11636;52.086;5.090;2023-04-15T02:27:28;5.65;;;3.70;;
22939;SDS011;11636;52.086;5.090;2023-04-15T02:30:22;5.60;;;4.22;;
22939;SDS011;11636;52.086;5.090;2023-04-15T02:33:17;6.07;;;4.30;;
22939;SDS011;11636;52.086;5.090;2023-04-15T02:36:04;5.68;;;4.13;;
22939;SDS011;11636;52.086;5.090;2023-04-15T02:39:00;5.70;;;3.85;;
22939;SDS011;11636;52.086;5.090;2023-04-15T02:41:49;4.75;;;3.60;;
22939;SDS011;11636;52.086;5.090;2023-04-15T02:44:45;6.32;;;4.40;;
22939;SDS011;11636;52.086;5.090;2023-04-15T02:47:33;6.38;;;3.97;;
22939;SDS011;11636;52.086;5.090;2023-04-15T02:50:27;6.35;;;4.07;;
22939;SDS011;11636;52.086;5.090;2023-04-15T02:53:23;6.07;;;4.00;;
22939;SDS011;11636;52.086;5.090;2023-04-15T02:56:30;7.03;;;4.57;;
22939;SDS011;11636;52.086;5.090;2023-04-15T02:59:17;8.43;;;4.70;;
22939;SDS011;11636;52.086;5.090;2023-04-15T03:02:10;6.05;;;4.55;;
22939;SDS011;11636;52.086;5.090;2023-04-15T03:05:04;6.60;;;5.00;;
22939;SDS011;11636;52.086;5.090;2023-04-15T03:07:52;9.35;;;5.22;;
22939;SDS011;11636;52.086;5.090;2023-04-15T03:10:47;9.07;;;5.80;;
22939;SDS011;11636;52.086;5.090;2023-04-15T03:13:40;8.43;;;5.55;;
22939;SDS011;11636;52.086;5.090;2023-04-15T03:16:35;7.32;;;5.57;;
22939;SDS011;11636;52.086;5.090;2023-04-15T03:19:22;8.98;;;5.85;;
22939;SDS011;11636;52.086;5.090;2023-04-15T03:22:16;7.57;;;5.28;;
22939;SDS011;11636;52.086;5.090;2023-04-15T03:25:03;10.48;;;6.55;;
22939;SDS011;11636;52.086;5.090;2023-04-15T03:27:58;9.40;;;5.82;;
22939;SDS011;11636;52.086;5.090;2023-04-15T03:30:52;7.57;;;4.82;;
22939;SDS011;11636;52.086;5.090;2023-04-15T03:33:46;7.07;;;5.28;;
22939;SDS011;11636;52.086;5.090;2023-04-15T03:36:40;7.10;;;5.25;;
22939;SDS011;11636;52.086;5.090;2023-04-15T03:39:27;8.27;;;5.72;;
22939;SDS011;11636;52.086;5.090;2023-04-15T03:42:21;7.68;;;4.82;;
22939;SDS011;11636;52.086;5.090;2023-04-15T03:45:09;9.55;;;6.40;;
22939;SDS011;11636;52.086;5.090;2023-04-15T03:48:03;8.85;;;5.80;;
22939;SDS011;11636;52.086;5.090;2023-04-15T03:51:03;7.03;;;5.43;;
22939;SDS011;11636;52.086;5.090;2023-04-15T03:53:56;8.15;;;5.57;;
22939;SDS011;11636;52.086;5.090;2023-04-15T03:56:44;8.13;;;5.10;;
22939;SDS011;11636;52.086;5.090;2023-04-15T03:59:37;8.52;;;5.07;;
22939;SDS011;11636;52.086;5.090;2023-04-15T04:02:24;10.02;;;6.10;;
22939;SDS011;11636;52.086;5.090;2023-04-15T04:05:19;8.38;;;5.72;;
22939;SDS011;11636;52.086;5.090;2023-04-15T04:08:07;9.55;;;6.88;;
22939;SDS011;11636;52.086;5.090;2023-04-15T04:11:00;7.68;;;5.90;;
22939;SDS011;11636;52.086;5.090;2023-04-15T04:13:54;8.82;;;6.00;;
22939;SDS011;11636;52.086;5.090;2023-04-15T04:16:42;8.25;;;5.97;;
22939;SDS011;11636;52.086;5.090;2023-04-15T04:19:35;7.82;;;5.75;;
22939;SDS011;11636;52.086;5.090;2023-04-15T04:22:22;8.38;;;5.90;;
22939;SDS011;11636;52.086;5.090;2023-04-15T04:25:16;9.63;;;6.20;;
22939;SDS011;11636;52.086;5.090;2023-04-15T04:28:03;9.57;;;5.93;;
22939;SDS011;11636;52.086;5.090;2023-04-15T04:30:57;11.30;;;6.85;;
22939;SDS011;11636;52.086;5.090;2023-04-15T04:33:51;10.50;;;6.47;;
22939;SDS011;11636;52.086;5.090;2023-04-15T04:36:45;8.95;;;6.20;;
22939;SDS011;11636;52.086;5.090;2023-04-15T04:39:39;7.53;;;5.80;;
22939;SDS011;11636;52.086;5.090;2023-04-15T04:42:27;8.63;;;6.25;;
22939;SDS011;11636;52.086;5.090;2023-04-15T04:45:23;9.55;;;5.93;;
22939;SDS011;11636;52.086;5.090;2023-04-15T04:48:10;9.63;;;6.90;;
22939;SDS011;11636;52.086;5.090;2023-04-15T04:51:03;10.02;;;6.68;;
22939;SDS011;11636;52.086;5.090;2023-04-15T04:53:51;11.75;;;6.95;;
22939;SDS011;11636;52.086;5.090;2023-04-15T04:56:46;10.15;;;7.00;;
22939;SDS011;11636;52.086;5.090;2023-04-15T04:59:33;9.05;;;6.68;;
22939;SDS011;11636;52.086;5.090;2023-04-15T05:02:27;9.13;;;6.55;;
22939;SDS011;11636;52.086;5.090;2023-04-15T05:05:15;9.65;;;6.75;;
22939;SDS011;11636;52.086;5.090;2023-04-15T05:08:08;8.88;;;6.50;;
22939;SDS011;11636;52.086;5.090;2023-04-15T05:10:56;12.05;;;7.20;;
22939;SDS011;11636;52.086;5.090;2023-04-15T05:13:49;8.98;;;6.93;;
22939;SDS011;11636;52.086;5.090;2023-04-15T05:16:43;9.10;;;6.38;;
22939;SDS011;11636;52.086;5.090;2023-04-15T05:19:37;9.45;;;6.75;;
22939;SDS011;11636;52.086;5.090;2023-04-15T05:22:31;9.02;;;6.68;;
22939;SDS011;11636;52.086;5.090;2023-04-15T05:25:25;12.13;;;7.63;;
22939;SDS011;11636;52.086;5.090;2023-04-15T05:28:19;10.85;;;7.13;;
22939;SDS011;11636;52.086;5.090;2023-04-15T05:31:13;9.52;;;6.90;;
22939;SDS011;11636;52.086;5.090;2023-04-15T05:34:08;10.10;;;7.18;;
22939;SDS011;11636;52.086;5.090;2023-04-15T05:37:01;10.55;;;7.00;;
22939;SDS011;11636;52.086;5.090;2023-04-15T05:39:55;9.23;;;6.65;;
22939;SDS011;11636;52.086;5.090;2023-04-15T05:42:42;8.82;;;6.80;;
22939;SDS011;11636;52.086;5.090;2023-04-15T05:45:37;9.10;;;7.03;;
22939;SDS011;11636;52.086;5.090;2023-04-15T05:48:30;8.85;;;6.60;;
22939;SDS011;11636;52.086;5.090;2023-04-15T05:51:18;10.95;;;7.10;;
22939;SDS011;11636;52.086;5.090;2023-04-15T05:54:11;9.00;;;6.75;;
22939;SDS011;11636;52.086;5.090;2023-04-15T05:56:59;10.95;;;6.72;;
22939;SDS011;11636;52.086;5.090;2023-04-15T05:59:52;10.10;;;7.18;;
22939;SDS011;11636;52.086;5.090;2023-04-15T06:02:47;11.15;;;7.63;;
22939;SDS011;11636;52.086;5.090;2023-04-15T06:05:42;8.70;;;6.82;;
22939;SDS011;11636;52.086;5.090;2023-04-15T06:08:30;10.80;;;7.63;;
22939;SDS011;11636;52.086;5.090;2023-04-15T06:11:23;11.13;;;7.20;;
22939;SDS011;11636;52.086;5.090;2023-04-15T06:14:12;9.35;;;7.05;;
22939;SDS011;11636;52.086;5.090;2023-04-15T06:17:06;10.00;;;5.97;;
22939;SDS011;11636;52.086;5.090;2023-04-15T06:19:53;8.48;;;6.45;;
22939;SDS011;11636;52.086;5.090;2023-04-15T06:22:47;9.75;;;6.85;;
22939;SDS011;11636;52.086;5.090;2023-04-15T06:25:35;9.38;;;7.38;;
22939;SDS011;11636;52.086;5.090;2023-04-15T06:28:29;9.18;;;6.68;;
22939;SDS011;11636;52.086;5.090;2023-04-15T06:31:22;10.57;;;7.25;;
22939;SDS011;11636;52.086;5.090;2023-04-15T06:34:10;7.85;;;6.30;;
22939;SDS011;11636;52.086;5.090;2023-04-15T06:37:04;10.70;;;7.75;;
22939;SDS011;11636;52.086;5.090;2023-04-15T06:39:51;10.43;;;7.35;;
22939;SDS011;11636;52.086;5.090;2023-04-15T06:42:45;9.63;;;7.53;;
22939;SDS011;11636;52.086;5.090;2023-04-15T06:45:39;9.35;;;7.65;;
22939;SDS011;11636;52.086;5.090;2023-04-15T06:48:27;8.68;;;6.43;;
22939;SDS011;11636;52.086;5.090;2023-04-15T06:51:21;9.95;;;7.18;;
22939;SDS011;11636;52.086;5.090;2023-04-15T06:54:16;10.43;;;7.47;;
22939;SDS011;11636;52.086;5.090;2023-04-15T06:57:10;10.15;;;7.40;;
22939;SDS011;11636;52.086;5.090;2023-04-15T07:00:04;8.82;;;6.85;;
22939;SDS011;11636;52.086;5.090;2023-04-15T07:02:58;11.15;;;8.57;;
22939;SDS011;11636;52.086;5.090;2023-04-15T07:05:55;11.82;;;8.27;;
22939;SDS011;11636;52.086;5.090;2023-04-15T07:08:42;11.38;;;8.43;;
22939;SDS011;11636;52.086;5.090;2023-04-15T07:11:36;12.45;;;8.02;;
22939;SDS011;11636;52.086;5.090;2023-04-15T07:14:23;9.60;;;7.68;;
22939;SDS011;11636;52.086;5.090;2023-04-15T07:17:17;11.07;;;8.13;;
22939;SDS011;11636;52.086;5.090;2023-04-15T07:20:04;10.95;;;7.53;;
22939;SDS011;11636;52.086;5.090;2023-04-15T07:22:58;9.43;;;6.88;;
22939;SDS011;11636;52.086;5.090;2023-04-15T07:25:52;12.52;;;9.57;;
22939;SDS011;11636;52.086;5.090;2023-04-15T07:28:39;11.60;;;8.88;;
22939;SDS011;11636;52.086;5.090;2023-04-15T07:31:33;11.80;;;8.68;;
22939;SDS011;11636;52.086;5.090;2023-04-15T07:34:20;10.40;;;7.93;;
22939;SDS011;11636;52.086;5.090;2023-04-15T07:37:15;10.60;;;6.68;;
22939;SDS011;11636;52.086;5.090;2023-04-15T07:40:03;10.15;;;7.97;;
22939;SDS011;11636;52.086;5.090;2023-04-15T07:42:59;11.25;;;8.30;;
22939;SDS011;11636;52.086;5.090;2023-04-15T07:45:54;10.13;;;7.55;;
22939;SDS011;11636;52.086;5.090;2023-04-15T07:48:41;9.75;;;6.72;;
22939;SDS011;11636;52.086;5.090;2023-04-15T07:51:35;7.95;;;6.03;;
22939;SDS011;11636;52.086;5.090;2023-04-15T07:54:22;8.05;;;5.75;;
22939;SDS011;11636;52.086;5.090;2023-04-15T07:57:17;8.55;;;5.78;;
22939;SDS011;11636;52.086;5.090;2023-04-15T08:00:11;7.45;;;5.63;;
22939;SDS011;11636;52.086;5.090;2023-04-15T08:03:05;9.10;;;5.90;;
22939;SDS011;11636;52.086;5.090;2023-04-15T08:05:59;9.82;;;5.68;;
22939;SDS011;11636;52.086;5.090;2023-04-15T08:08:53;8.73;;;6.28;;
22939;SDS011;11636;52.086;5.090;2023-04-15T08:11:41;8.15;;;5.55;;
22939;SDS011;11636;52.086;5.090;2023-04-15T08:14:35;8.48;;;5.68;;
22939;SDS011;11636;52.086;5.090;2023-04-15T08:17:29;8.80;;;5.50;;
22939;SDS011;11636;52.086;5.090;2023-04-15T08:20:16;8.02;;;5.63;;
22939;SDS011;11636;52.086;5.090;2023-04-15T08:23:10;10.75;;;6.25;;
22939;SDS011;11636;52.086;5.090;2023-04-15T08:25:57;7.97;;;5.65;;
22939;SDS011;11636;52.086;5.090;2023-04-15T08:28:51;8.88;;;5.90;;
22939;SDS011;11636;52.086;5.090;2023-04-15T08:31:45;8.52;;;5.95;;
22939;SDS011;11636;52.086;5.090;2023-04-15T08:34:40;9.95;;;6.75;;
22939;SDS011;11636;52.086;5.090;2023-04-15T08:37:27;11.48;;;6.20;;
22939;SDS011;11636;52.086;5.090;2023-04-15T08:40:21;8.88;;;6.10;;
22939;SDS011;11636;52.086;5.090;2023-04-15T08:43:22;10.27;;;5.90;;
22939;SDS011;11636;52.086;5.090;2023-04-15T08:46:13;9.43;;;6.18;;
22939;SDS011;11636;52.086;5.090;2023-04-15T08:49:11;9.35;;;5.78;;
22939;SDS011;11636;52.086;5.090;2023-04-15T08:51:59;8.90;;;5.78;;
22939;SDS011;11636;52.086;5.090;2023-04-15T08:54:55;7.43;;;5.10;;
22939;SDS011;11636;52.086;5.090;2023-04-15T08:57:44;7.38;;;4.22;;
22939;SDS011;11636;52.086;5.090;2023-04-15T09:00:38;6.47;;;4.50;;
22939;SDS011;11636;52.086;5.090;2023-04-15T09:03:32;7.82;;;5.00;;
22939;SDS011;11636;52.086;5.090;2023-04-15T09:06:20;6.80;;;4.90;;
22939;SDS011;11636;52.086;5.090;2023-04-15T09:09:21;9.57;;;5.38;;
22939;SDS011;11636;52.086;5.090;2023-04-15T09:12:09;7.60;;;4.97;;
22939;SDS011;11636;52.086;5.090;2023-04-15T09:15:04;7.88;;;4.80;;
22939;SDS011;11636;52.086;5.090;2023-04-15T09:17:51;7.82;;;4.78;;
22939;SDS011;11636;52.086;5.090;2023-04-15T09:20:45;7.95;;;3.95;;
22939;SDS011;11636;52.086;5.090;2023-04-15T09:23:32;5.10;;;3.42;;
22939;SDS011;11636;52.086;5.090;2023-04-15T09:26:31;5.85;;;3.30;;
22939;SDS011;11636;52.086;5.090;2023-04-15T09:29:18;4.53;;;2.65;;
22939;SDS011;11636;52.086;5.090;2023-04-15T09:32:13;4.40;;;2.72;;
22939;SDS011;11636;52.086;5.090;2023-04-15T09:35:09;3.78;;;2.53;;
22939;SDS011;11636;52.086;5.090;2023-04-15T09:38:05;3.60;;;2.28;;
22939;SDS011;11636;52.086;5.090;2023-04-15T09:40:53;4.88;;;2.50;;
22939;SDS011;11636;52.086;5.090;2023-04-15T09:43:48;5.95;;;2.42;;
22939;SDS011;11636;52.086;5.090;2023-04-15T09:46:42;6.03;;;3.00;;
22939;SDS011;11636;52.086;5.090;2023-04-15T09:49:36;5.88;;;2.65;;
22939;SDS011;11636;52.086;5.090;2023-04-15T09:52:23;9.52;;;4.25;;
22939;SDS011;11636;52.086;5.090;2023-04-15T09:55:18;7.53;;;4.35;;
22939;SDS011;11636;52.086;5.090;2023-04-15T09:58:30;9.75;;;5.15;;
22939;SDS011;11636;52.086;5.090;2023-04-15T10:01:19;8.48;;;4.35;;
22939;SDS011;11636;52.086;5.090;2023-04-15T10:04:12;5.97;;;3.40;;
22939;SDS011;11636;52.086;5.090;2023-04-15T10:07:02;5.30;;;2.90;;
22939;SDS011;11636;52.086;5.090;2023-04-15T10:09:57;4.35;;;2.60;;
22939;SDS011;11636;52.086;5.090;2023-04-15T10:12:54;4.75;;;2.20;;
22939;SDS011;11636;52.086;5.090;2023-04-15T10:15:42;3.83;;;2.00;;
22939;SDS011;11636;52.086;5.090;2023-04-15T10:18:41;4.15;;;2.53;;
22939;SDS011;11636;52.086;5.090;2023-04-15T10:21:29;3.45;;;1.80;;
22939;SDS011;11636;52.086;5.090;2023-04-15T10:24:24;3.88;;;1.90;;
22939;SDS011;11636;52.086;5.090;2023-04-15T10:27:13;4.82;;;2.30;;
22939;SDS011;11636;52.086;5.090;2023-04-15T10:30:07;4.00;;;2.30;;
22939;SDS011;11636;52.086;5.090;2023-04-15T10:32:55;4.57;;;2.20;;
22939;SDS011;11636;52.086;5.090;2023-04-15T10:35:49;3.70;;;2.28;;
22939;SDS011;11636;52.086;5.090;2023-04-15T10:38:44;4.32;;;2.53;;
22939;SDS011;11636;52.086;5.090;2023-04-15T10:41:32;13.18;;;7.82;;
22939;SDS011;11636;52.086;5.090;2023-04-15T10:44:27;27.98;;;14.05;;
22939;SDS011;11636;52.086;5.090;2023-04-15T10:47:15;8.55;;;4.57;;
22939;SDS011;11636;52.086;5.090;2023-04-15T10:50:11;7.70;;;4.57;;
22939;SDS011;11636;52.086;5.090;2023-04-15T10:53:01;5.03;;;3.20;;
22939;SDS011;11636;52.086;5.090;2023-04-15T10:55:57;6.55;;;3.90;;
22939;SDS011;11636;52.086;5.090;2023-04-15T10:58:51;6.32;;;3.92;;
22939;SDS011;11636;52.086;5.090;2023-04-15T11:01:54;7.50;;;4.25;;
22939;SDS011;11636;52.086;5.090;2023-04-15T11:04:56;6.47;;;3.70;;
22939;SDS011;11636;52.086;5.090;2023-04-15T11:07:56;5.60;;;3.65;;
22939;SDS011;11636;52.086;5.090;2023-04-15T11:10:51;5.90;;;3.15;;
22939;SDS011;11636;52.086;5.090;2023-04-15T11:13:49;6.60;;;4.28;;
22939;SDS011;11636;52.086;5.090;2023-04-15T11:16:41;7.43;;;3.92;;
22939;SDS011;11636;52.086;5.090;2023-04-15T11:19:37;6.65;;;3.80;;
22939;SDS011;11636;52.086;5.090;2023-04-15T11:22:24;5.25;;;3.85;;
22939;SDS011;11636;52.086;5.090;2023-04-15T11:25:25;5.78;;;3.72;;
22939;SDS011;11636;52.086;5.090;2023-04-15T11:28:22;8.20;;;4.28;;
22939;SDS011;11636;52.086;5.090;2023-04-15T11:31:19;8.10;;;4.20;;
22939;SDS011;11636;52.086;5.090;2023-04-15T11:34:21;5.88;;;3.75;;
22939;SDS011;11636;52.086;5.090;2023-04-15T11:37:08;6.60;;;3.45;;
22939;SDS011;11636;52.086;5.090;2023-04-15T11:40:02;7.03;;;3.90;;
22939;SDS011;11636;52.086;5.090;2023-04-15T11:43:02;6.07;;;3.20;;
22939;SDS011;11636;52.086;5.090;2023-04-15T11:46:00;9.02;;;3.83;;
22939;SDS011;11636;52.086;5.090;2023-04-15T11:48:55;4.88;;;3.08;;
22939;SDS011;11636;52.086;5.090;2023-04-15T11:51:49;4.78;;;2.30;;
22939;SDS011;11636;52.086;5.090;2023-04-15T11:54:43;5.57;;;1.75;;
22939;SDS011;11636;52.086;5.090;2023-04-15T11:57:30;4.88;;;2.20;;
22939;SDS011;11636;52.086;5.090;2023-04-15T12:00:24;3.67;;;2.00;;
22939;SDS011;11636;52.086;5.090;2023-04-15T12:03:25;5.30;;;2.15;;
22939;SDS011;11636;52.086;5.090;2023-04-15T12:06:32;3.85;;;1.85;;
22939;SDS011;11636;52.086;5.090;2023-04-15T12:09:22;4.00;;;1.67;;
22939;SDS011;11636;52.086;5.090;2023-04-15T12:12:17;6.15;;;2.33;;
22939;SDS011;11636;52.086;5.090;2023-04-15T12:15:11;2.67;;;1.70;;
22939;SDS011;11636;52.086;5.090;2023-04-15T12:18:05;6.32;;;2.65;;
22939;SDS011;11636;52.086;5.090;2023-04-15T12:21:03;6.07;;;2.15;;
22939;SDS011;11636;52.086;5.090;2023-04-15T12:24:00;3.35;;;1.90;;
22939;SDS011;11636;52.086;5.090;2023-04-15T12:26:56;5.30;;;2.03;;
22939;SDS011;11636;52.086;5.090;2023-04-15T12:29:43;4.88;;;2.08;;
22939;SDS011;11636;52.086;5.090;2023-04-15T12:32:37;6.72;;;2.45;;
22939;SDS011;11636;52.086;5.090;2023-04-15T12:35:28;4.63;;;2.38;;
22939;SDS011;11636;52.086;5.090;2023-04-15T12:38:22;7.30;;;3.40;;
22939;SDS011;11636;52.086;5.090;2023-04-15T12:41:16;6.40;;;2.58;;
22939;SDS011;11636;52.086;5.090;2023-04-15T12:44:10;5.30;;;2.20;;
22939;SDS011;11636;52.086;5.090;2023-04-15T12:46:58;5.90;;;2.63;;
22939;SDS011;11636;52.086;5.090;2023-04-15T12:49:52;8.25;;;3.00;;
22939;SDS011;11636;52.086;5.090;2023-04-15T12:52:39;4.28;;;2.17;;
22939;SDS011;11636;52.086;5.090;2023-04-15T12:55:34;5.72;;;2.55;;
22939;SDS011;11636;52.086;5.090;2023-04-15T12:58:21;7.85;;;3.17;;
22939;SDS011;11636;52.086;5.090;2023-04-15T13:01:15;4.40;;;2.60;;
22939;SDS011;11636;52.086;5.090;2023-04-15T13:04:03;5.30;;;2.70;;
22939;SDS011;11636;52.086;5.090;2023-04-15T13:06:57;5.47;;;2.90;;
22939;SDS011;11636;52.086;5.090;2023-04-15T13:09:45;5.93;;;2.50;;
22939;SDS011;11636;52.086;5.090;2023-04-15T13:12:38;6.80;;;2.33;;
22939;SDS011;11636;52.086;5.090;2023-04-15T13:15:27;6.45;;;2.60;;
22939;SDS011;11636;52.086;5.090;2023-04-15T13:18:21;4.82;;;1.90;;
22939;SDS011;11636;52.086;5.090;2023-04-15T13:21:15;4.78;;;2.00;;
22939;SDS011;11636;52.086;5.090;2023-04-15T13:24:03;4.93;;;1.85;;
22939;SDS011;11636;52.086;5.090;2023-04-15T13:26:58;4.82;;;1.55;;
22939;SDS011;11636;52.086;5.090;2023-04-15T13:29:45;3.90;;;1.75;;
22939;SDS011;11636;52.086;5.090;2023-04-15T13:32:39;3.15;;;1.30;;
22939;SDS011;11636;52.086;5.090;2023-04-15T13:35:26;5.57;;;1.77;;
22939;SDS011;11636;52.086;5.090;2023-04-15T13:38:20;5.90;;;1.40;;
22939;SDS011;11636;52.086;5.090;2023-04-15T13:41:08;4.13;;;1.15;;
22939;SDS011;11636;52.086;5.090;2023-04-15T13:44:02;3.33;;;1.40;;
22939;SDS011;11636;52.086;5.090;2023-04-15T13:46:51;4.90;;;1.15;;
22939;SDS011;11636;52.086;5.090;2023-04-15T13:49:45;3.78;;;1.10;;
22939;SDS011;11636;52.086;5.090;2023-04-15T13:52:33;3.78;;;1.10;;
22939;SDS011;11636;52.086;5.090;2023-04-15T13:55:26;4.53;;;0.93;;
22939;SDS011;11636;52.086;5.090;2023-04-15T13:58:14;5.22;;;1.10;;
22939;SDS011;11636;52.086;5.090;2023-04-15T14:01:08;2.97;;;0.80;;
22939;SDS011;11636;52.086;5.090;2023-04-15T14:03:55;2.53;;;0.80;;
22939;SDS011;11636;52.086;5.090;2023-04-15T14:06:50;4.93;;;0.80;;
22939;SDS011;11636;52.086;5.090;2023-04-15T14:09:37;3.63;;;0.80;;
22939;SDS011;11636;52.086;5.090;2023-04-15T14:12:31;3.88;;;1.00;;
22939;SDS011;11636;52.086;5.090;2023-04-15T14:15:20;3.47;;;1.00;;
22939;SDS011;11636;52.086;5.090;2023-04-15T14:18:13;2.85;;;1.05;;
22939;SDS011;11636;52.086;5.090;2023-04-15T14:21:00;4.57;;;1.10;;
22939;SDS011;11636;52.086;5.090;2023-04-15T14:23:54;5.25;;;1.20;;
22939;SDS011;11636;52.086;5.090;2023-04-15T14:26:42;3.88;;;1.10;;
22939;SDS011;11636;52.086;5.090;2023-04-15T14:29:36;7.63;;;1.48;;
22939;SDS011;11636;52.086;5.090;2023-04-15T14:32:30;5.30;;;1.50;;
22939;SDS011;11636;52.086;5.090;2023-04-15T14:35:17;6.85;;;1.73;;
22939;SDS011;11636;52.086;5.090;2023-04-15T14:38:12;3.63;;;1.17;;
22939;SDS011;11636;52.086;5.090;2023-04-15T14:40:59;3.78;;;0.90;;
22939;SDS011;11636;52.086;5.090;2023-04-15T14:43:52;4.97;;;0.93;;
22939;SDS011;11636;52.086;5.090;2023-04-15T14:46:40;4.55;;;1.20;;
22939;SDS011;11636;52.086;5.090;2023-04-15T14:49:33;4.40;;;1.40;;
22939;SDS011;11636;52.086;5.090;2023-04-15T14:52:20;5.32;;;0.98;;
22939;SDS011;11636;52.086;5.090;2023-04-15T14:55:14;5.00;;;1.05;;
22939;SDS011;11636;52.086;5.090;2023-04-15T14:58:02;3.90;;;1.05;;
22939;SDS011;11636;52.086;5.090;2023-04-15T15:00:56;5.47;;;1.15;;
22939;SDS011;11636;52.086;5.090;2023-04-15T15:03:50;3.75;;;1.10;;
22939;SDS011;11636;52.086;5.090;2023-04-15T15:06:38;8.93;;;1.45;;
22939;SDS011;11636;52.086;5.090;2023-04-15T15:09:34;5.68;;;1.17;;
22939;SDS011;11636;52.086;5.090;2023-04-15T15:12:28;5.43;;;1.00;;
22939;SDS011;11636;52.086;5.090;2023-04-15T15:15:22;7.25;;;1.35;;
22939;SDS011;11636;52.086;5.090;2023-04-15T15:18:15;3.00;;;0.80;;
22939;SDS011;11636;52.086;5.090;2023-04-15T15:21:11;5.50;;;1.00;;
22939;SDS011;11636;52.086;5.090;2023-04-15T15:24:05;5.13;;;1.00;;
22939;SDS011;11636;52.086;5.090;2023-04-15T15:26:52;4.07;;;1.02;;
22939;SDS011;11636;52.086;5.090;2023-04-15T15:29:45;4.15;;;1.10;;
22939;SDS011;11636;52.086;5.090;2023-04-15T15:32:34;5.28;;;1.38;;
22939;SDS011;11636;52.086;5.090;2023-04-15T15:35:27;4.82;;;1.13;;
22939;SDS011;11636;52.086;5.090;2023-04-15T15:38:15;6.18;;;1.33;;
22939;SDS011;11636;52.086;5.090;2023-04-15T15:41:09;5.55;;;1.17;;
22939;SDS011;11636;52.086;5.090;2023-04-15T15:43:56;6.20;;;1.20;;
22939;SDS011;11636;52.086;5.090;2023-04-15T15:46:49;5.40;;;1.13;;
22939;SDS011;11636;52.086;5.090;2023-04-15T15:49:37;4.95;;;1.30;;
22939;SDS011;11636;52.086;5.090;2023-04-15T15:52:31;3.70;;;0.93;;
22939;SDS011;11636;52.086;5.090;2023-04-15T15:55:18;6.78;;;1.20;;
22939;SDS011;11636;52.086;5.090;2023-04-15T15:58:12;5.68;;;1.20;;
22939;SDS011;11636;52.086;5.090;2023-04-15T16:01:00;4.88;;;1.02;;
22939;SDS011;11636;52.086;5.090;2023-04-15T16:03:54;5.68;;;1.13;;
22939;SDS011;11636;52.086;5.090;2023-04-15T16:06:41;6.78;;;1.60;;
22939;SDS011;11636;52.086;5.090;2023-04-15T16:09:38;7.03;;;1.10;;
22939;SDS011;11636;52.086;5.090;2023-04-15T16:12:35;5.72;;;1.13;;
22939;SDS011;11636;52.086;5.090;2023-04-15T16:15:29;7.03;;;1.15;;
22939;SDS011;11636;52.086;5.090;2023-04-15T16:18:24;7.68;;;1.50;;
22939;SDS011;11636;52.086;5.090;2023-04-15T16:21:11;6.38;;;1.20;;
22939;SDS011;11636;52.086;5.090;2023-04-15T16:24:05;5.20;;;1.00;;
22939;SDS011;11636;52.086;5.090;2023-04-15T16:26:52;5.57;;;1.13;;
22939;SDS011;11636;52.086;5.090;2023-04-15T16:29:47;7.35;;;1.65;;
22939;SDS011;11636;52.086;5.090;2023-04-15T16:32:34;3.55;;;1.23;;
22939;SDS011;11636;52.086;5.090;2023-04-15T16:35:29;8.02;;;1.55;;
22939;SDS011;11636;52.086;5.090;2023-04-15T16:38:19;6.57;;;1.50;;
22939;SDS011;11636;52.086;5.090;2023-04-15T16:41:14;5.72;;;1.17;;
22939;SDS011;11636;52.086;5.090;2023-04-15T16:44:08;4.45;;;1.20;;
22939;SDS011;11636;52.086;5.090;2023-04-15T16:46:56;7.15;;;1.50;;
22939;SDS011;11636;52.086;5.090;2023-04-15T16:49:49;6.65;;;1.33;;
22939;SDS011;11636;52.086;5.090;2023-04-15T16:52:37;6.88;;;1.60;;
22939;SDS011;11636;52.086;5.090;2023-04-15T16:55:30;8.88;;;1.40;;
22939;SDS011;11636;52.086;5.090;2023-04-15T16:58:25;6.50;;;1.60;;
22939;SDS011;11636;52.086;5.090;2023-04-15T17:01:13;7.68;;;1.70;;
22939;SDS011;11636;52.086;5.090;2023-04-15T17:04:07;7.00;;;1.70;;
22939;SDS011;11636;52.086;5.090;2023-04-15T17:06:54;7.28;;;1.67;;
22939;SDS011;11636;52.086;5.090;2023-04-15T17:09:47;7.47;;;1.73;;
22939;SDS011;11636;52.086;5.090;2023-04-15T17:12:35;8.38;;;1.70;;
22939;SDS011;11636;52.086;5.090;2023-04-15T17:15:29;7.28;;;1.40;;